Airfield :
LOGIN :

Register | Disclaimer

   EN    FR    IT 

 










Legend :    VFR   Marginal VFR   IFR   Intensive IFR   Very Intensive IFR
Visi :
Ceiling :
>= 8 km
>= 3000ft
5 to 8 km
1000 to 3000 ft
1500m to 5 km
500 to 1000 ft
800 to 1500m
200 to 500 ft
< 800m
< 200 ft
Symbols :   Thunderstorms  Fog  Heavy snow  Heavy precipitations  Wind > 20 kt
SIGMETs :     Misc.  Thunderstorms  Icing  Turbulence  Mountain Waves  Volcanic Ashes






- Airport Elevation : 2302 ft


LEAB - Albacete

CURRENT METAR :
  • 191000Z 05004KT 360V090 9999 FEW040 20/14 Q1017 NOSIG

EXPIRED METARs :
  • 190930Z VRB02KT 9999 FEW030 20/14 Q1017 NOSIG
  • 190900Z VRB02KT 9999 FEW030 18/14 Q1017 NOSIG
  • 190830Z 30004KT 270V350 CAVOK 18/13 Q1017 NOSIG
  • 190800Z 26003KT CAVOK 17/14 Q1017 NOSIG
  • 190730Z 27004KT CAVOK 17/13 Q1017 NOSIG
  • 190700Z 26003KT 230V290 9999 FEW040 17/13 Q1017 NOSIG

TAF TAF LEAB
Valid from the 19 at 06:00 until the 20 at 06:00 UTC


190500Z 1906/2006 28010KT 9999 SCT040 TX24/1915Z TN14/2005Z
PROB40
TEMPO 1906/1909 4000 SHRA RA SCT030TCU
PROB40
TEMPO 1913/1921 4000 SHRA RA SCT030TCU



MET'MAP, your aeronautical weather chart ! - Copyright ORBIFLY December 2007 - Disclaimer

ORBIFLY MET'MAP TEAM :

Programming & Development : Alexandra Zaïnal
Concept & original design : Baudouin d'Aumeries
Assistance for programming : Marc-Olivier Méhu
Technical & hardware support : Manuel Goepfert

Contact : metmap@orbifly.com




SOURCES & CREDITS :

   NOAA